createdAt,value
2016-12-15T00:00:14.026Z,17.33
2016-12-15T00:01:13.812Z,17.33
2016-12-15T00:02:12.713Z,17.32
2016-12-15T00:03:12.963Z,17.33
2016-12-15T00:04:13.226Z,17.33
2016-12-15T00:05:13.175Z,17.33
2016-12-15T00:06:12.674Z,17.32
2016-12-15T00:07:12.862Z,17.33
2016-12-15T00:08:12.977Z,17.32
2016-12-15T00:09:10.469Z,17.32
2016-12-15T00:10:12.816Z,17.33
2016-12-15T00:11:12.902Z,17.40
2016-12-15T00:12:12.917Z,17.80
2016-12-15T00:13:13.158Z,17.37
2016-12-15T00:14:12.604Z,17.34
2016-12-15T00:15:12.899Z,17.33
2016-12-15T00:16:12.766Z,17.32
2016-12-15T00:17:12.996Z,17.35
2016-12-15T00:18:13.018Z,17.33
2016-12-15T00:19:13.064Z,17.41
2016-12-15T00:20:15.041Z,17.81
2016-12-15T00:21:11.215Z,17.86
2016-12-15T00:22:13.226Z,17.87
2016-12-15T00:23:12.927Z,17.87
2016-12-15T00:24:12.502Z,17.39
2016-12-15T00:25:13.715Z,17.35
2016-12-15T00:26:12.860Z,17.34
2016-12-15T00:27:12.563Z,17.81
2016-12-15T00:28:12.185Z,17.87
2016-12-15T00:29:13.615Z,17.87
2016-12-15T00:30:11.972Z,17.88
2016-12-15T00:31:13.078Z,17.90
2016-12-15T00:32:14.106Z,17.89
2016-12-15T00:33:10.752Z,17.89
2016-12-15T00:34:12.781Z,17.88
2016-12-15T00:35:12.397Z,17.89
2016-12-15T00:36:10.110Z,17.90
2016-12-15T00:37:13.009Z,17.89
2016-12-15T00:38:12.837Z,17.89
2016-12-15T00:39:12.363Z,17.90
2016-12-15T00:40:13.339Z,17.89
2016-12-15T00:41:13.395Z,17.90
2016-12-15T00:42:15.247Z,17.90
2016-12-15T00:43:13.058Z,17.90
2016-12-15T00:44:12.978Z,17.90
2016-12-15T00:45:12.605Z,17.89
2016-12-15T00:46:12.738Z,17.45
2016-12-15T00:47:13.037Z,17.37
2016-12-15T00:48:18.095Z,17.36
2016-12-15T00:49:13.006Z,17.38
2016-12-15T00:50:13.649Z,17.33
2016-12-15T00:51:12.352Z,17.34
2016-12-15T00:52:14.076Z,17.33
2016-12-15T00:53:13.031Z,17.33
2016-12-15T00:54:14.950Z,17.33
2016-12-15T00:55:12.634Z,17.33
2016-12-15T00:56:12.961Z,17.33
2016-12-15T00:57:13.538Z,17.33
2016-12-15T00:58:13.408Z,17.32
2016-12-15T00:59:13.244Z,17.33
2016-12-15T01:00:14.978Z,17.32
2016-12-15T01:01:13.369Z,17.33
2016-12-15T01:02:12.847Z,17.33
2016-12-15T01:03:12.954Z,17.32
2016-12-15T01:04:18.788Z,17.33
2016-12-15T01:05:14.345Z,17.33
2016-12-15T01:06:12.831Z,17.32
2016-12-15T01:07:12.865Z,17.32
2016-12-15T01:08:14.353Z,17.33
2016-12-15T01:09:13.921Z,17.32
2016-12-15T01:10:14.888Z,17.32
2016-12-15T01:11:13.496Z,17.32
2016-12-15T01:12:14.837Z,17.33
2016-12-15T01:13:13.345Z,17.33
2016-12-15T01:14:15.056Z,17.33
2016-12-15T01:15:12.896Z,17.33
2016-12-15T01:16:12.997Z,17.39
2016-12-15T01:17:14.097Z,17.33
2016-12-15T01:18:15.478Z,17.32
2016-12-15T01:19:14.336Z,17.33
2016-12-15T01:20:15.905Z,17.34
2016-12-15T01:21:14.319Z,17.34
2016-12-15T01:22:14.353Z,17.33
2016-12-15T01:23:13.306Z,17.34
2016-12-15T01:24:13.436Z,17.34
2016-12-15T01:25:13.314Z,17.34
2016-12-15T01:26:13.389Z,17.34
2016-12-15T01:27:13.197Z,17.34
2016-12-15T01:28:13.403Z,17.33
2016-12-15T01:29:14.745Z,17.34
2016-12-15T01:30:13.439Z,17.34
2016-12-15T01:31:12.089Z,17.83
2016-12-15T01:32:14.457Z,17.86
2016-12-15T01:33:14.548Z,17.39
2016-12-15T01:34:10.258Z,17.35
2016-12-15T01:35:13.227Z,17.36
2016-12-15T01:36:12.697Z,17.34
2016-12-15T01:37:12.317Z,17.34
2016-12-15T01:38:13.615Z,17.34
2016-12-15T01:39:12.156Z,17.34
2016-12-15T01:40:14.213Z,17.36
2016-12-15T01:41:13.381Z,17.33
2016-12-15T01:42:14.169Z,17.33
2016-12-15T01:43:12.969Z,17.34
2016-12-15T01:44:10.123Z,17.33
2016-12-15T01:45:13.537Z,17.34
2016-12-15T01:46:14.383Z,17.34
2016-12-15T01:47:12.748Z,17.33
2016-12-15T01:48:12.850Z,17.34
2016-12-15T01:49:13.421Z,17.34
2016-12-15T01:50:13.907Z,17.34
2016-12-15T01:51:12.734Z,17.33
2016-12-15T01:52:13.458Z,17.34
2016-12-15T01:53:12.896Z,17.33
2016-12-15T01:54:10.057Z,17.33
2016-12-15T01:55:13.678Z,17.33
2016-12-15T01:56:13.273Z,17.34
2016-12-15T01:57:10.758Z,17.33
2016-12-15T01:58:14.187Z,17.83
2016-12-15T01:59:12.708Z,17.86
2016-12-15T02:00:17.830Z,17.88
2016-12-15T02:01:13.135Z,17.58
2016-12-15T02:02:13.995Z,17.39
2016-12-15T02:03:14.113Z,17.36
2016-12-15T02:04:13.830Z,17.38
2016-12-15T02:05:13.758Z,17.82
2016-12-15T02:06:13.568Z,17.85
2016-12-15T02:07:12.868Z,17.39
2016-12-15T02:08:12.426Z,17.36
2016-12-15T02:09:13.343Z,17.42
2016-12-15T02:10:19.246Z,17.35
2016-12-15T02:11:13.527Z,17.34
2016-12-15T02:12:12.864Z,17.34
2016-12-15T02:13:13.759Z,17.34
2016-12-15T02:14:14.002Z,17.34
2016-12-15T02:15:13.959Z,17.34
2016-12-15T02:16:13.679Z,17.33
2016-12-15T02:17:10.973Z,17.34
2016-12-15T02:18:12.536Z,17.34
2016-12-15T02:19:13.022Z,17.34
2016-12-15T02:20:13.074Z,17.33
2016-12-15T02:21:14.216Z,17.33
2016-12-15T02:22:13.096Z,17.34
2016-12-15T02:23:12.689Z,17.34
2016-12-15T02:24:13.228Z,17.34
2016-12-15T02:25:12.680Z,17.33
2016-12-15T02:26:12.797Z,17.34
2016-12-15T02:27:13.115Z,17.38
2016-12-15T02:28:13.558Z,17.33
2016-12-15T02:29:13.275Z,17.33
2016-12-15T02:30:12.808Z,17.33
2016-12-15T02:31:13.607Z,17.33
2016-12-15T02:32:15.497Z,17.32
2016-12-15T02:33:13.028Z,17.34
2016-12-15T02:34:09.868Z,17.33
2016-12-15T02:35:13.684Z,17.34
2016-12-15T02:36:13.301Z,17.34
2016-12-15T02:37:13.970Z,17.33
2016-12-15T02:38:15.115Z,17.33
2016-12-15T02:39:12.568Z,17.33
2016-12-15T02:40:13.127Z,17.33
2016-12-15T02:41:15.389Z,17.33
2016-12-15T02:42:13.510Z,17.37
2016-12-15T02:43:13.010Z,17.82
2016-12-15T02:44:13.188Z,17.87
2016-12-15T02:45:13.535Z,17.88
2016-12-15T02:46:14.087Z,17.87
2016-12-15T02:47:13.425Z,17.39
2016-12-15T02:48:14.237Z,17.41
2016-12-15T02:49:12.615Z,17.35
2016-12-15T02:50:12.922Z,17.37
2016-12-15T02:51:12.432Z,17.82
2016-12-15T02:52:13.747Z,17.86
2016-12-15T02:53:12.727Z,17.86
2016-12-15T02:54:12.245Z,17.89
2016-12-15T02:55:12.733Z,17.55
2016-12-15T02:56:12.528Z,17.40
2016-12-15T02:57:12.940Z,17.36
2016-12-15T02:58:12.308Z,17.35
2016-12-15T02:59:13.027Z,17.41
2016-12-15T03:00:15.235Z,17.33
2016-12-15T03:01:15.247Z,17.33
2016-12-15T03:02:14.254Z,17.33
2016-12-15T03:03:13.317Z,17.33
2016-12-15T03:04:14.317Z,17.33
2016-12-15T03:05:13.024Z,17.33
2016-12-15T03:06:13.943Z,17.33
2016-12-15T03:07:12.633Z,17.33
2016-12-15T03:08:14.985Z,17.33
2016-12-15T03:09:13.294Z,17.33
2016-12-15T03:10:12.919Z,17.33
2016-12-15T03:11:14.592Z,17.33
2016-12-15T03:12:14.584Z,17.33
2016-12-15T03:13:12.178Z,17.33
2016-12-15T03:14:14.393Z,17.32
2016-12-15T03:15:15.177Z,17.33
2016-12-15T03:16:12.738Z,17.33
2016-12-15T03:17:13.232Z,17.33
2016-12-15T03:18:15.265Z,17.33
2016-12-15T03:19:14.198Z,17.33
2016-12-15T03:20:13.147Z,17.33
2016-12-15T03:21:13.950Z,17.33
2016-12-15T03:22:13.178Z,17.33
2016-12-15T03:23:12.814Z,17.33
2016-12-15T03:24:11.501Z,17.33
2016-12-15T03:25:13.717Z,17.82
2016-12-15T03:26:13.067Z,17.87
2016-12-15T03:27:13.621Z,17.87
2016-12-15T03:28:12.488Z,17.88
2016-12-15T03:29:12.893Z,17.90
2016-12-15T03:30:12.987Z,17.87
2016-12-15T03:31:13.225Z,17.89
2016-12-15T03:32:13.727Z,17.89
2016-12-15T03:33:12.948Z,17.89
2016-12-15T03:34:13.255Z,17.90
2016-12-15T03:35:12.714Z,17.89
2016-12-15T03:36:13.351Z,17.89
2016-12-15T03:37:15.883Z,17.90
2016-12-15T03:38:13.507Z,17.90
2016-12-15T03:39:14.067Z,17.40
2016-12-15T03:40:13.876Z,17.36
2016-12-15T03:41:13.072Z,17.35
2016-12-15T03:42:13.245Z,17.34
2016-12-15T03:43:13.479Z,17.34
2016-12-15T03:44:13.767Z,17.33
2016-12-15T03:45:13.218Z,17.33
2016-12-15T03:46:14.199Z,17.33
2016-12-15T03:47:13.019Z,17.33
2016-12-15T03:48:12.479Z,17.32
2016-12-15T03:49:12.906Z,17.33
2016-12-15T03:50:12.249Z,17.32
2016-12-15T03:51:13.213Z,17.33
2016-12-15T03:52:13.146Z,17.34
2016-12-15T03:53:12.728Z,17.33
2016-12-15T03:54:13.623Z,17.33
2016-12-15T03:55:12.873Z,17.32
2016-12-15T03:56:14.064Z,17.33
2016-12-15T03:57:13.323Z,17.32
2016-12-15T03:58:13.538Z,17.33
2016-12-15T03:59:13.883Z,17.32
2016-12-15T04:00:13.116Z,17.33
2016-12-15T04:01:12.597Z,17.32
2016-12-15T04:02:12.627Z,17.32
2016-12-15T04:03:12.619Z,17.32
2016-12-15T04:04:13.698Z,17.32
2016-12-15T04:05:14.773Z,17.33
2016-12-15T04:06:13.769Z,17.32
2016-12-15T04:07:12.207Z,17.34
2016-12-15T04:08:13.599Z,17.33
2016-12-15T04:09:13.365Z,17.33
2016-12-15T04:10:12.994Z,17.32
2016-12-15T04:11:12.514Z,17.33
2016-12-15T04:12:12.920Z,17.33
2016-12-15T04:13:12.860Z,17.40
2016-12-15T04:14:13.164Z,17.33
2016-12-15T04:15:12.733Z,17.33
2016-12-15T04:16:12.240Z,17.32
2016-12-15T04:17:13.327Z,17.35
2016-12-15T04:18:13.157Z,17.82
2016-12-15T04:19:14.896Z,17.86
2016-12-15T04:20:13.213Z,17.88
2016-12-15T04:21:13.227Z,17.87
2016-12-15T04:22:13.264Z,17.89
2016-12-15T04:23:12.758Z,17.54
2016-12-15T04:24:12.818Z,17.39
2016-12-15T04:25:13.462Z,17.35
2016-12-15T04:26:13.066Z,17.34
2016-12-15T04:27:12.645Z,17.34
2016-12-15T04:28:13.426Z,17.34
2016-12-15T04:29:14.096Z,17.33
2016-12-15T04:30:12.876Z,17.33
2016-12-15T04:31:13.006Z,17.33
2016-12-15T04:32:14.211Z,17.32
2016-12-15T04:33:13.642Z,17.33
2016-12-15T04:34:13.270Z,17.33
2016-12-15T04:35:12.636Z,17.33
2016-12-15T04:36:12.704Z,17.38
2016-12-15T04:37:12.849Z,17.36
2016-12-15T04:38:12.716Z,17.33
2016-12-15T04:39:12.572Z,17.34
2016-12-15T04:40:13.141Z,17.32
2016-12-15T04:41:13.282Z,17.33
2016-12-15T04:42:13.008Z,17.34
2016-12-15T04:43:12.944Z,17.33
2016-12-15T04:44:13.756Z,17.33
2016-12-15T04:45:12.133Z,17.33
2016-12-15T04:46:12.525Z,17.33
2016-12-15T04:47:12.797Z,17.33
2016-12-15T04:48:12.949Z,17.33
2016-12-15T04:49:10.904Z,17.34
2016-12-15T04:50:12.134Z,17.33
2016-12-15T04:51:13.137Z,17.33
2016-12-15T04:52:12.774Z,17.33
2016-12-15T04:53:13.081Z,17.33
2016-12-15T04:54:12.986Z,17.32
2016-12-15T04:55:12.507Z,17.33
2016-12-15T04:56:14.505Z,17.33
2016-12-15T04:57:13.413Z,17.33
2016-12-15T04:58:11.059Z,17.33
2016-12-15T04:59:13.042Z,17.33
2016-12-15T05:00:13.378Z,17.33
2016-12-15T05:01:12.881Z,17.33
2016-12-15T05:02:15.223Z,17.33
2016-12-15T05:03:14.844Z,17.32
2016-12-15T05:04:12.564Z,17.33
2016-12-15T05:05:13.963Z,17.32
2016-12-15T05:06:13.883Z,17.33
2016-12-15T05:07:12.954Z,17.32
2016-12-15T05:08:12.987Z,17.32
2016-12-15T05:09:14.949Z,17.33
2016-12-15T05:10:12.618Z,17.33
2016-12-15T05:11:12.186Z,17.33
2016-12-15T05:12:13.398Z,17.33
2016-12-15T05:13:13.258Z,17.33
2016-12-15T05:14:13.666Z,17.33
2016-12-15T05:15:12.627Z,17.33
2016-12-15T05:16:12.085Z,17.33
2016-12-15T05:17:11.495Z,17.32
2016-12-15T05:18:13.617Z,17.82
2016-12-15T05:19:13.344Z,17.49
2016-12-15T05:20:14.218Z,17.37
2016-12-15T05:21:14.320Z,17.35
2016-12-15T05:22:14.176Z,17.33
2016-12-15T05:23:12.988Z,17.33
2016-12-15T05:24:12.555Z,17.33
2016-12-15T05:25:16.785Z,17.32
2016-12-15T05:26:13.067Z,17.33
2016-12-15T05:27:12.438Z,17.33
2016-12-15T05:28:14.256Z,17.33
2016-12-15T05:29:13.332Z,17.33
2016-12-15T05:30:14.213Z,17.33
2016-12-15T05:31:14.386Z,17.32
2016-12-15T05:32:13.490Z,17.32
2016-12-15T05:33:13.497Z,17.32
2016-12-15T05:34:13.303Z,17.37
2016-12-15T05:35:14.363Z,17.33
2016-12-15T05:36:12.784Z,17.32
2016-12-15T05:37:12.176Z,17.32
2016-12-15T05:38:12.945Z,17.32
2016-12-15T05:39:12.606Z,17.32
2016-12-15T05:40:13.095Z,17.35
2016-12-15T05:41:12.753Z,17.31
2016-12-15T05:42:13.496Z,17.32
2016-12-15T05:43:13.514Z,17.32
2016-12-15T05:44:13.288Z,17.32
2016-12-15T05:45:12.909Z,17.32
2016-12-15T05:46:13.938Z,17.32
2016-12-15T05:47:13.881Z,17.33
2016-12-15T05:48:12.707Z,17.32
2016-12-15T05:49:13.622Z,17.33
2016-12-15T05:50:12.567Z,17.32
2016-12-15T05:51:12.239Z,17.33
2016-12-15T05:52:13.385Z,17.33
2016-12-15T05:53:13.356Z,17.32
2016-12-15T05:54:13.367Z,17.33
2016-12-15T05:55:13.006Z,17.32
2016-12-15T05:56:14.298Z,17.33
2016-12-15T05:57:13.335Z,17.32
2016-12-15T05:58:13.176Z,17.33
2016-12-15T05:59:12.638Z,17.32
2016-12-15T06:00:12.784Z,17.32
2016-12-15T06:01:12.407Z,17.33
2016-12-15T06:02:13.438Z,17.32
2016-12-15T06:03:13.715Z,17.32
2016-12-15T06:04:13.887Z,17.32
2016-12-15T06:05:12.462Z,17.32
2016-12-15T06:06:12.993Z,17.32
2016-12-15T06:07:13.864Z,17.32
2016-12-15T06:08:14.476Z,17.32
2016-12-15T06:09:14.641Z,17.32
2016-12-15T06:10:12.476Z,17.32
2016-12-15T06:11:13.448Z,17.33
2016-12-15T06:12:11.426Z,17.32
2016-12-15T06:13:12.895Z,17.32
2016-12-15T06:14:12.345Z,17.33
2016-12-15T06:15:13.632Z,17.32
2016-12-15T06:16:12.738Z,17.36
2016-12-15T06:17:12.807Z,17.82
2016-12-15T06:18:12.979Z,17.36
2016-12-15T06:19:12.355Z,17.33
2016-12-15T06:20:13.296Z,17.33
2016-12-15T06:21:13.750Z,17.33
2016-12-15T06:22:12.856Z,17.33
2016-12-15T06:23:13.045Z,17.35
2016-12-15T06:24:12.791Z,17.81
2016-12-15T06:25:12.965Z,17.86
2016-12-15T06:26:12.470Z,17.87
2016-12-15T06:27:13.594Z,17.88
2016-12-15T06:28:12.136Z,17.88
2016-12-15T06:29:13.364Z,17.89
2016-12-15T06:30:13.500Z,17.55
2016-12-15T06:31:12.407Z,17.39
2016-12-15T06:32:13.518Z,17.36
2016-12-15T06:33:13.858Z,17.35
2016-12-15T06:34:18.399Z,17.34
2016-12-15T06:35:12.778Z,17.48
2016-12-15T06:36:12.862Z,17.36
2016-12-15T06:37:13.238Z,17.36
2016-12-15T06:38:12.746Z,17.82
2016-12-15T06:39:12.282Z,17.86
2016-12-15T06:40:13.475Z,17.87
2016-12-15T06:41:13.411Z,17.88
2016-12-15T06:42:12.858Z,17.89
2016-12-15T06:43:12.488Z,17.89
2016-12-15T06:44:17.740Z,17.89
2016-12-15T06:45:12.807Z,17.54
2016-12-15T06:46:12.337Z,17.39
2016-12-15T06:47:12.986Z,17.36
2016-12-15T06:48:10.699Z,17.34
2016-12-15T06:49:13.606Z,17.34
2016-12-15T06:50:12.380Z,17.35
2016-12-15T06:51:13.970Z,17.33
2016-12-15T06:52:16.266Z,17.33
2016-12-15T06:53:12.846Z,17.33
2016-12-15T06:54:12.855Z,17.33
2016-12-15T06:55:12.737Z,17.35
2016-12-15T06:56:12.357Z,17.33
2016-12-15T06:57:12.806Z,17.33
2016-12-15T06:58:14.050Z,17.33
2016-12-15T06:59:12.564Z,17.33
2016-12-15T07:00:14.534Z,17.32
2016-12-15T07:01:12.584Z,17.32
2016-12-15T07:02:12.707Z,17.36
2016-12-15T07:03:12.364Z,17.81
2016-12-15T07:04:12.890Z,17.86
2016-12-15T07:05:15.062Z,17.49
2016-12-15T07:06:13.233Z,17.38
2016-12-15T07:07:11.701Z,17.34
2016-12-15T07:08:13.666Z,17.34
2016-12-15T07:09:10.248Z,17.33
2016-12-15T07:10:13.065Z,17.34
2016-12-15T07:11:12.833Z,17.33
2016-12-15T07:12:13.134Z,17.33
2016-12-15T07:13:12.668Z,17.33
2016-12-15T07:14:12.324Z,17.33
2016-12-15T07:15:12.825Z,17.33
2016-12-15T07:16:12.903Z,17.32
2016-12-15T07:17:12.985Z,17.32
2016-12-15T07:18:12.752Z,17.33
2016-12-15T07:19:12.747Z,17.33
2016-12-15T07:20:12.799Z,17.32
2016-12-15T07:21:12.884Z,17.33
2016-12-15T07:22:12.307Z,17.33
2016-12-15T07:23:11.761Z,17.32
2016-12-15T07:24:14.798Z,17.33
2016-12-15T07:25:12.360Z,17.32
2016-12-15T07:26:13.272Z,17.39
2016-12-15T07:27:13.660Z,17.33
2016-12-15T07:28:13.081Z,17.32
2016-12-15T07:29:12.632Z,17.82
2016-12-15T07:30:12.234Z,17.85
2016-12-15T07:31:12.783Z,17.52
2016-12-15T07:32:12.460Z,17.39
2016-12-15T07:33:13.551Z,17.35
2016-12-15T07:34:14.449Z,17.34
2016-12-15T07:35:12.859Z,17.34
2016-12-15T07:36:13.871Z,17.33
2016-12-15T07:37:12.500Z,17.34
2016-12-15T07:38:13.829Z,17.34
2016-12-15T07:39:12.329Z,17.33
2016-12-15T07:40:12.778Z,17.33
2016-12-15T07:41:12.911Z,17.33
2016-12-15T07:42:13.778Z,17.33
2016-12-15T07:43:12.148Z,17.33
2016-12-15T07:44:12.736Z,17.32
2016-12-15T07:45:13.045Z,17.32
2016-12-15T07:46:14.053Z,17.32
2016-12-15T07:47:12.677Z,17.33
2016-12-15T07:48:14.855Z,17.33
2016-12-15T07:49:13.287Z,17.33
2016-12-15T07:50:13.348Z,17.33
2016-12-15T07:51:13.781Z,17.33
2016-12-15T07:52:12.805Z,17.33
2016-12-15T07:53:12.419Z,17.33
2016-12-15T07:54:12.828Z,17.33
2016-12-15T07:55:12.410Z,17.32
2016-12-15T07:56:13.792Z,17.33
2016-12-15T07:57:12.260Z,17.33
2016-12-15T07:58:12.853Z,17.33
2016-12-15T07:59:13.590Z,17.33
2016-12-15T08:00:12.518Z,17.33
2016-12-15T08:01:12.978Z,17.33
2016-12-15T08:02:13.862Z,17.32
2016-12-15T08:03:14.049Z,17.32
2016-12-15T08:04:13.274Z,17.33
2016-12-15T08:05:12.969Z,17.34
2016-12-15T08:06:13.257Z,17.34
2016-12-15T08:07:13.788Z,17.33
2016-12-15T08:08:12.853Z,17.33
2016-12-15T08:09:12.424Z,17.33
2016-12-15T08:10:15.050Z,17.33
2016-12-15T08:11:13.419Z,17.33
2016-12-15T08:12:13.534Z,17.33
2016-12-15T08:13:11.760Z,17.32
2016-12-15T08:14:12.585Z,17.82
2016-12-15T08:15:12.171Z,17.87
2016-12-15T08:16:15.283Z,17.89
2016-12-15T08:17:10.959Z,17.89
2016-12-15T08:18:12.481Z,17.65
2016-12-15T08:19:13.468Z,16.82
2016-12-15T08:20:15.693Z,15.86
2016-12-15T08:21:12.493Z,15.12
2016-12-15T08:22:13.786Z,14.78
2016-12-15T08:23:12.883Z,14.72
2016-12-15T08:24:13.183Z,14.80
2016-12-15T08:25:13.245Z,15.15
2016-12-15T08:26:13.805Z,15.52
2016-12-15T08:27:12.270Z,15.86
2016-12-15T08:28:13.071Z,16.12
2016-12-15T08:29:12.630Z,16.36
2016-12-15T08:30:12.629Z,16.53
2016-12-15T08:31:12.195Z,16.68
2016-12-15T08:32:13.914Z,16.49
2016-12-15T08:33:12.589Z,16.40
2016-12-15T08:34:12.686Z,16.44
2016-12-15T08:35:12.324Z,16.51
2016-12-15T08:36:12.995Z,16.57
2016-12-15T08:37:12.837Z,16.62
2016-12-15T08:38:12.366Z,16.68
2016-12-15T08:39:12.673Z,16.71
2016-12-15T08:40:13.303Z,16.75
2016-12-15T08:41:13.284Z,16.79
2016-12-15T08:42:12.766Z,16.82
2016-12-15T08:43:12.507Z,16.85
2016-12-15T08:44:16.694Z,16.87
2016-12-15T08:45:12.670Z,16.89
2016-12-15T08:46:12.696Z,16.91
2016-12-15T08:47:12.466Z,16.94
2016-12-15T08:48:12.937Z,16.95
2016-12-15T08:49:12.368Z,16.97
2016-12-15T08:50:15.385Z,16.98
2016-12-15T08:51:13.366Z,17.00
2016-12-15T08:52:12.970Z,17.01
2016-12-15T08:53:12.815Z,17.02
2016-12-15T08:54:12.418Z,17.04
2016-12-15T08:55:12.904Z,17.05
2016-12-15T08:56:12.679Z,17.05
2016-12-15T08:57:12.658Z,17.06
2016-12-15T08:58:13.626Z,17.07
2016-12-15T08:59:12.174Z,17.08
2016-12-15T09:00:13.094Z,17.08
2016-12-15T09:01:13.255Z,17.10
2016-12-15T09:02:15.717Z,17.10
2016-12-15T09:03:12.239Z,17.11
2016-12-15T09:04:12.712Z,17.11
2016-12-15T09:05:14.827Z,17.11
2016-12-15T09:06:10.596Z,17.12
2016-12-15T09:07:12.901Z,17.12
2016-12-15T09:08:12.579Z,17.12
2016-12-15T09:09:14.887Z,17.13
2016-12-15T09:10:13.020Z,17.13
2016-12-15T09:11:12.443Z,17.14
2016-12-15T09:12:13.682Z,17.13
2016-12-15T09:13:12.732Z,17.14
2016-12-15T09:14:12.834Z,17.14
2016-12-15T09:15:14.827Z,17.13
2016-12-15T09:16:12.776Z,17.14
2016-12-15T09:17:12.410Z,17.15
2016-12-15T09:18:13.463Z,17.15
2016-12-15T09:19:12.805Z,17.15
2016-12-15T09:20:12.708Z,17.15
2016-12-15T09:21:13.577Z,17.15
2016-12-15T09:22:12.478Z,17.16
2016-12-15T09:23:11.085Z,17.15
2016-12-15T09:24:10.502Z,17.15
2016-12-15T09:25:11.678Z,17.15
2016-12-15T09:26:12.501Z,17.64
2016-12-15T09:27:11.990Z,17.69
2016-12-15T09:28:12.490Z,17.70
2016-12-15T09:29:14.523Z,17.71
2016-12-15T09:30:13.538Z,17.73
2016-12-15T09:31:15.544Z,17.73
2016-12-15T09:32:12.504Z,17.74
2016-12-15T09:33:15.419Z,17.38
2016-12-15T09:34:13.359Z,17.24
2016-12-15T09:35:13.508Z,17.21
2016-12-15T09:36:14.471Z,17.19
2016-12-15T09:37:13.119Z,17.20
2016-12-15T09:38:12.858Z,17.18
2016-12-15T09:39:13.327Z,17.18
2016-12-15T09:40:13.331Z,17.18
2016-12-15T09:41:13.180Z,17.20
2016-12-15T09:42:13.289Z,17.18
2016-12-15T09:43:13.227Z,17.19
2016-12-15T09:44:16.376Z,17.18
2016-12-15T09:45:14.197Z,17.19
2016-12-15T09:46:14.439Z,17.19
2016-12-15T09:47:13.772Z,17.19
2016-12-15T09:48:13.100Z,17.21
2016-12-15T09:49:12.754Z,17.19
2016-12-15T09:50:12.816Z,17.19
2016-12-15T09:51:12.667Z,17.18
2016-12-15T09:52:12.243Z,17.19
2016-12-15T09:53:13.148Z,17.19
2016-12-15T09:54:12.669Z,17.19
2016-12-15T09:55:12.591Z,17.19
2016-12-15T09:56:11.203Z,17.19
2016-12-15T09:57:15.349Z,17.70
2016-12-15T09:58:12.987Z,17.72
2016-12-15T09:59:12.522Z,17.73
2016-12-15T10:00:13.643Z,17.74
2016-12-15T10:01:12.423Z,17.75
2016-12-15T10:02:13.349Z,17.74
2016-12-15T10:03:12.897Z,17.75
2016-12-15T10:04:12.878Z,17.75
2016-12-15T10:05:12.401Z,17.76
2016-12-15T10:06:13.002Z,17.76
2016-12-15T10:07:13.321Z,17.76
2016-12-15T10:08:11.171Z,17.75
2016-12-15T10:09:16.183Z,17.27
2016-12-15T10:10:12.954Z,17.24
2016-12-15T10:11:13.393Z,17.22
2016-12-15T10:12:13.013Z,17.23
2016-12-15T10:13:15.029Z,17.21
2016-12-15T10:14:12.471Z,17.22
2016-12-15T10:15:12.923Z,17.21
2016-12-15T10:16:13.253Z,17.21
2016-12-15T10:17:13.752Z,17.21
2016-12-15T10:18:13.135Z,17.23
2016-12-15T10:19:13.060Z,17.33
2016-12-15T10:20:13.091Z,17.27
2016-12-15T10:21:13.155Z,17.71
2016-12-15T10:22:13.329Z,17.74
2016-12-15T10:23:12.694Z,17.26
2016-12-15T10:24:12.343Z,17.24
2016-12-15T10:25:12.787Z,17.22
2016-12-15T10:26:13.460Z,17.22
2016-12-15T10:27:13.895Z,17.22
2016-12-15T10:28:13.871Z,17.22
2016-12-15T10:29:12.581Z,17.22
2016-12-15T10:30:12.683Z,17.21
2016-12-15T10:31:12.464Z,17.22
2016-12-15T10:32:13.018Z,17.21
2016-12-15T10:33:12.481Z,17.22
2016-12-15T10:34:14.110Z,17.22
2016-12-15T10:35:14.201Z,17.22
2016-12-15T10:36:16.364Z,17.22
2016-12-15T10:37:13.592Z,17.22
2016-12-15T10:38:13.478Z,17.22
2016-12-15T10:39:13.012Z,17.22
2016-12-15T10:40:13.562Z,17.22
2016-12-15T10:41:11.889Z,17.21
2016-12-15T10:42:12.635Z,17.22
2016-12-15T10:43:13.679Z,17.22
2016-12-15T10:44:12.834Z,17.24
2016-12-15T10:45:12.412Z,17.71
2016-12-15T10:46:12.735Z,17.43
2016-12-15T10:47:12.654Z,17.27
2016-12-15T10:48:12.354Z,17.24
2016-12-15T10:49:12.837Z,17.23
2016-12-15T10:50:12.509Z,17.23
2016-12-15T10:51:13.360Z,17.22
2016-12-15T10:52:15.510Z,17.23
2016-12-15T10:53:13.931Z,17.23
2016-12-15T10:54:12.902Z,17.22
2016-12-15T10:55:12.849Z,17.23
2016-12-15T10:56:12.818Z,17.22
2016-12-15T10:57:12.963Z,17.23
2016-12-15T10:58:16.072Z,17.22
2016-12-15T10:59:15.377Z,17.22
2016-12-15T11:00:13.112Z,17.22
2016-12-15T11:01:13.025Z,17.23
2016-12-15T11:02:12.653Z,17.23
2016-12-15T11:03:12.283Z,17.23
2016-12-15T11:04:14.472Z,17.23
2016-12-15T11:05:12.990Z,17.22
2016-12-15T11:06:12.879Z,17.23
2016-12-15T11:07:12.688Z,17.22
2016-12-15T11:08:12.358Z,17.25
2016-12-15T11:09:13.176Z,17.23
2016-12-15T11:10:13.337Z,17.23
2016-12-15T11:11:13.522Z,17.23
2016-12-15T11:12:13.679Z,17.23
2016-12-15T11:13:12.249Z,17.23
2016-12-15T11:14:13.331Z,17.27
2016-12-15T11:15:12.938Z,17.72
2016-12-15T11:16:12.703Z,17.75
2016-12-15T11:17:11.285Z,17.77
2016-12-15T11:18:12.930Z,17.78
2016-12-15T11:19:10.055Z,17.78
2016-12-15T11:20:11.186Z,17.30
2016-12-15T11:21:14.948Z,17.30
2016-12-15T11:22:12.688Z,17.74
2016-12-15T11:23:13.530Z,17.78
2016-12-15T11:24:13.076Z,17.30
2016-12-15T11:25:13.028Z,17.27
2016-12-15T11:26:13.919Z,17.26
2016-12-15T11:27:11.458Z,17.25
2016-12-15T11:28:11.071Z,17.24
2016-12-15T11:29:12.658Z,17.25
2016-12-15T11:30:14.799Z,17.25
2016-12-15T11:31:18.591Z,17.25
2016-12-15T11:32:12.651Z,17.25
2016-12-15T11:33:13.565Z,17.25
2016-12-15T11:34:13.038Z,17.25
2016-12-15T11:35:15.851Z,17.23
2016-12-15T11:36:12.809Z,17.24
2016-12-15T11:37:13.079Z,17.25
2016-12-15T11:38:12.448Z,17.25
2016-12-15T11:39:12.919Z,17.25
2016-12-15T11:40:12.680Z,17.25
2016-12-15T11:41:13.014Z,17.25
2016-12-15T11:42:12.524Z,17.25
2016-12-15T11:43:13.132Z,17.25
2016-12-15T11:44:12.846Z,17.25
2016-12-15T11:45:12.828Z,17.25
2016-12-15T11:46:12.470Z,17.25
2016-12-15T11:47:13.241Z,17.26
2016-12-15T11:48:12.547Z,17.25
2016-12-15T11:49:13.647Z,17.31
2016-12-15T11:50:12.402Z,17.26
2016-12-15T11:51:14.658Z,17.25
2016-12-15T11:52:12.245Z,17.25
2016-12-15T11:53:12.819Z,17.25
2016-12-15T11:54:12.445Z,17.26
2016-12-15T11:55:14.589Z,17.25
2016-12-15T11:56:12.112Z,17.26
2016-12-15T11:57:14.097Z,17.26
2016-12-15T11:58:12.578Z,17.25
2016-12-15T11:59:12.116Z,17.25
2016-12-15T12:00:12.740Z,17.26
2016-12-15T12:01:18.136Z,17.26
2016-12-15T12:02:12.615Z,17.26
2016-12-15T12:03:12.140Z,17.26
2016-12-15T12:04:13.298Z,17.25
2016-12-15T12:05:14.344Z,17.25
2016-12-15T12:06:18.324Z,17.26
2016-12-15T12:07:18.938Z,17.25
2016-12-15T12:08:12.519Z,17.25
2016-12-15T12:09:13.182Z,17.26
2016-12-15T12:10:14.368Z,17.26
2016-12-15T12:11:13.178Z,17.25
2016-12-15T12:12:13.976Z,17.26
2016-12-15T12:13:13.308Z,17.26
2016-12-15T12:14:18.424Z,17.26
2016-12-15T12:15:12.994Z,17.26
2016-12-15T12:16:12.799Z,17.26
2016-12-15T12:17:12.783Z,17.25
2016-12-15T12:18:14.814Z,17.26
2016-12-15T12:19:12.348Z,17.27
2016-12-15T12:20:13.717Z,17.26
2016-12-15T12:21:10.397Z,17.26
2016-12-15T12:22:13.206Z,17.26
2016-12-15T12:23:14.283Z,17.26
2016-12-15T12:24:13.769Z,17.26
2016-12-15T12:25:12.485Z,17.25
2016-12-15T12:26:10.596Z,17.26
2016-12-15T12:27:15.351Z,17.26
2016-12-15T12:28:13.110Z,17.26
2016-12-15T12:29:12.589Z,17.25
2016-12-15T12:30:12.701Z,17.33
2016-12-15T12:31:12.627Z,17.26
2016-12-15T12:32:12.337Z,17.26
2016-12-15T12:33:13.092Z,17.26
2016-12-15T12:34:13.202Z,17.26
2016-12-15T12:35:14.284Z,17.26
2016-12-15T12:36:14.511Z,17.26
2016-12-15T12:37:13.760Z,17.26
2016-12-15T12:38:12.311Z,17.26
2016-12-15T12:39:19.352Z,17.26
2016-12-15T12:40:14.327Z,17.26
2016-12-15T12:41:10.022Z,17.26
2016-12-15T12:42:12.187Z,17.26
2016-12-15T12:43:12.785Z,17.26
2016-12-15T12:44:12.543Z,17.27
2016-12-15T12:45:11.190Z,17.27
2016-12-15T12:46:12.843Z,17.76
2016-12-15T12:47:12.640Z,17.47
2016-12-15T12:48:12.953Z,17.32
2016-12-15T12:49:12.918Z,17.28
2016-12-15T12:50:14.091Z,17.27
2016-12-15T12:51:13.262Z,17.27
2016-12-15T12:52:13.369Z,17.27